Dubuque, IA (52001)

10:46 AM CDT on August 29, 2015 (GMT -0500)
City Hall Annex | | Change Station
CLOSE
Current Station
Personal Weather Station
Location: Dubuque, IA
Elevation: 640 ft
Nearby Weather Stations

Elev 640 ft 42.51 °N, 90.67 °W | Updated 1 minute ago

Overcast
Overcast
69.5 °F
Feels Like 69.5 °F
N
2.0
Wind Variable Wind from NNE
Gusts 4.0 mph

Today
High -- | Low -- °F
--% Chance of Precip.
Yesterday
High -- | Low -- °F
Precip. -- in
6:24 AM 7:42 PM
Full, 100% visible
Pressure 30.02 in
Visibility 6.0 miles
Clouds Overcast 700 ft
Dew Point 67 °F
Humidity 92%
Rainfall 0.20 in
Snow Depth Not available.
UV 2 out of 12
Pollen .90 out of 12
Air Quality Not available.
Flu Activity Not available.
SPECI KDBQ 291525Z 04005KT 6SM BR OVC007 21/18 A3002 RMK AO2 CIG 005V011 T02060183 $
Pressure 30.02 in
Visibility 6.0 miles
Clouds Overcast 700 ft
Dew Point 67 °F
Humidity 92%
Rainfall 0.20 in
Snow Depth Not available.
UV 2 out of 12
Pollen .90 out of 12
Air Quality Not available.
Flu Activity Not available.
SPECI KDBQ 291525Z 04005KT 6SM BR OVC007 21/18 A3002 RMK AO2 CIG 005V011 T02060183 $

10-Day Weather Forecast

×

Almanac

Astronomy

Aug. 29, 2015 Rise Set
Actual Time
Civil Twilight
Nautical Twilight
Astronomical Twilight
Moon
Length of Visible Light
Length of Day
Tomorrow will be .
, % of the Moon is Illuminated

Today's Extremes

State Highs State Lows

Community

WunderPhotos

Upload Photos

1,850,700 photos uploaded!

WunderBlogs® & News

Nearby

Air Quality

  Air Quality AQ Index Pollutant
Not available.

Snow Depth

Station Depth Elevation

Earthquake Activity

City Distance Mag. Time & Date
Minimum magnitude displayed is 2.5.

Coastal Water Temperatures

Place Temperature

Stations

Nearby Weather Stations

Station Location Temp. Windchill Dew Point Humidity Wind Precip. Elev Updated Type